Terminal Aerodrome Forecast
Issued by NWS

Home | Current Version | Previous Version | Text Only | Print | Product List | Glossary On
Versions: 1 2 3 4 5 6 7 8 9 10 11 12 13 14 15 16
000
FTUS41 KCAR 211748
TAFBHB
TAF
KBHB 211748Z 2118/2218 34004KT P6SM -SHSN FEW009 SCT020 OVC030
     FM212200 VRB03KT 6SM -SN SCT015 OVC025
     FM220100 03004KT 4SM -SN SCT007 OVC015
     FM220700 05004KT 6SM -SN OVC007
     FM221200 07005KT P6SM SCT007 OVC025
      AMD LTD TO CLD VIS AND WIND=

USA.gov is the U.S. government's official web portal to all federal, state and local government web resources and services.